sensor_id;sensor_type;location;lat;lon;timestamp;temperature;humidity
285;DHT22;127;48.770;9.212;2023-01-13T00:01:33;9.60;99.90
285;DHT22;127;48.770;9.212;2023-01-13T00:04:03;9.60;99.90
285;DHT22;127;48.770;9.212;2023-01-13T00:06:32;9.70;99.90
285;DHT22;127;48.770;9.212;2023-01-13T00:09:00;9.70;99.90
285;DHT22;127;48.770;9.212;2023-01-13T00:11:29;9.70;99.90
285;DHT22;127;48.770;9.212;2023-01-13T00:13:58;9.70;99.90
285;DHT22;127;48.770;9.212;2023-01-13T00:16:26;9.60;99.90
285;DHT22;127;48.770;9.212;2023-01-13T00:18:57;9.70;99.90
285;DHT22;127;48.770;9.212;2023-01-13T00:21:26;9.60;99.90
285;DHT22;127;48.770;9.212;2023-01-13T00:23:54;9.60;99.90
285;DHT22;127;48.770;9.212;2023-01-13T00:26:25;9.60;99.90
285;DHT22;127;48.770;9.212;2023-01-13T00:28:55;9.60;99.90
285;DHT22;127;48.770;9.212;2023-01-13T00:31:24;9.60;99.90
285;DHT22;127;48.770;9.212;2023-01-13T00:33:58;9.60;99.90
285;DHT22;127;48.770;9.212;2023-01-13T00:36:28;9.60;99.90
285;DHT22;127;48.770;9.212;2023-01-13T00:38:56;9.60;99.90
285;DHT22;127;48.770;9.212;2023-01-13T00:41:26;9.70;99.90
285;DHT22;127;48.770;9.212;2023-01-13T00:44:14;9.60;99.90
285;DHT22;127;48.770;9.212;2023-01-13T00:46:41;9.60;99.90
285;DHT22;127;48.770;9.212;2023-01-13T00:49:12;9.60;99.90
285;DHT22;127;48.770;9.212;2023-01-13T00:51:40;9.60;99.90
285;DHT22;127;48.770;9.212;2023-01-13T00:54:09;9.50;99.90
285;DHT22;127;48.770;9.212;2023-01-13T00:56:38;9.50;99.90
285;DHT22;127;48.770;9.212;2023-01-13T00:59:07;9.60;99.90
285;DHT22;127;48.770;9.212;2023-01-13T01:01:37;9.50;99.90
285;DHT22;127;48.770;9.212;2023-01-13T01:04:06;9.60;99.90
285;DHT22;127;48.770;9.212;2023-01-13T01:06:38;9.60;99.90
285;DHT22;127;48.770;9.212;2023-01-13T01:09:06;9.60;99.90
285;DHT22;127;48.770;9.212;2023-01-13T01:11:35;9.60;99.90
285;DHT22;127;48.770;9.212;2023-01-13T01:14:04;9.70;99.90
285;DHT22;127;48.770;9.212;2023-01-13T01:16:37;9.80;99.90
285;DHT22;127;48.770;9.212;2023-01-13T01:19:06;9.80;99.90
285;DHT22;127;48.770;9.212;2023-01-13T01:21:37;9.80;99.90
285;DHT22;127;48.770;9.212;2023-01-13T01:24:06;9.80;99.90
285;DHT22;127;48.770;9.212;2023-01-13T01:26:35;9.90;99.90
285;DHT22;127;48.770;9.212;2023-01-13T01:29:04;9.90;99.90
285;DHT22;127;48.770;9.212;2023-01-13T01:31:32;9.90;99.90
285;DHT22;127;48.770;9.212;2023-01-13T01:34:01;9.90;99.90
285;DHT22;127;48.770;9.212;2023-01-13T01:36:30;9.90;99.90
285;DHT22;127;48.770;9.212;2023-01-13T01:39:02;9.90;99.90
285;DHT22;127;48.770;9.212;2023-01-13T01:41:33;9.90;99.90
285;DHT22;127;48.770;9.212;2023-01-13T01:44:06;9.90;99.90
285;DHT22;127;48.770;9.212;2023-01-13T01:46:35;10.00;99.90
285;DHT22;127;48.770;9.212;2023-01-13T01:49:14;10.00;99.90
285;DHT22;127;48.770;9.212;2023-01-13T01:51:47;10.00;99.90
285;DHT22;127;48.770;9.212;2023-01-13T01:54:24;10.00;99.90
285;DHT22;127;48.770;9.212;2023-01-13T01:56:54;9.90;99.90
285;DHT22;127;48.770;9.212;2023-01-13T01:59:23;9.90;99.90
285;DHT22;127;48.770;9.212;2023-01-13T02:01:52;9.90;99.90
285;DHT22;127;48.770;9.212;2023-01-13T02:04:24;9.90;99.90
285;DHT22;127;48.770;9.212;2023-01-13T02:06:56;9.90;99.90
285;DHT22;127;48.770;9.212;2023-01-13T02:09:28;9.90;99.90
285;DHT22;127;48.770;9.212;2023-01-13T02:11:57;9.80;99.90
285;DHT22;127;48.770;9.212;2023-01-13T02:14:50;9.80;99.90
285;DHT22;127;48.770;9.212;2023-01-13T02:17:26;9.80;99.90
285;DHT22;127;48.770;9.212;2023-01-13T02:26:56;9.80;99.90
285;DHT22;127;48.770;9.212;2023-01-13T02:32:48;9.90;99.90
285;DHT22;127;48.770;9.212;2023-01-13T02:35:23;9.90;99.90
285;DHT22;127;48.770;9.212;2023-01-13T02:37:56;9.90;99.90
285;DHT22;127;48.770;9.212;2023-01-13T02:40:30;9.80;99.90
285;DHT22;127;48.770;9.212;2023-01-13T02:43:03;9.80;99.90
285;DHT22;127;48.770;9.212;2023-01-13T02:45:50;9.80;99.90
285;DHT22;127;48.770;9.212;2023-01-13T02:48:21;9.80;99.90
285;DHT22;127;48.770;9.212;2023-01-13T02:50:55;9.90;99.90
285;DHT22;127;48.770;9.212;2023-01-13T02:53:29;9.90;99.90
285;DHT22;127;48.770;9.212;2023-01-13T02:56:02;9.90;99.90
285;DHT22;127;48.770;9.212;2023-01-13T02:58:34;9.80;99.90
285;DHT22;127;48.770;9.212;2023-01-13T03:01:07;9.80;99.90
285;DHT22;127;48.770;9.212;2023-01-13T03:03:35;9.80;99.90
285;DHT22;127;48.770;9.212;2023-01-13T03:06:15;9.80;99.90
285;DHT22;127;48.770;9.212;2023-01-13T03:08:49;9.80;99.90
285;DHT22;127;48.770;9.212;2023-01-13T03:11:19;9.80;99.90
285;DHT22;127;48.770;9.212;2023-01-13T03:14:02;9.70;99.90
285;DHT22;127;48.770;9.212;2023-01-13T03:16:46;9.70;99.90
285;DHT22;127;48.770;9.212;2023-01-13T03:19:24;9.70;99.90
285;DHT22;127;48.770;9.212;2023-01-13T03:22:00;9.70;99.90
285;DHT22;127;48.770;9.212;2023-01-13T03:24:35;9.70;99.90
285;DHT22;127;48.770;9.212;2023-01-13T03:27:07;9.80;99.90
285;DHT22;127;48.770;9.212;2023-01-13T03:29:41;9.80;99.90
285;DHT22;127;48.770;9.212;2023-01-13T03:32:16;9.80;99.90
285;DHT22;127;48.770;9.212;2023-01-13T03:34:49;9.80;99.90
285;DHT22;127;48.770;9.212;2023-01-13T03:37:22;9.70;99.90
285;DHT22;127;48.770;9.212;2023-01-13T03:39:56;9.80;99.90
285;DHT22;127;48.770;9.212;2023-01-13T03:42:29;9.70;99.90
285;DHT22;127;48.770;9.212;2023-01-13T03:45:04;9.80;99.90
285;DHT22;127;48.770;9.212;2023-01-13T03:47:38;9.70;99.90
285;DHT22;127;48.770;9.212;2023-01-13T03:50:11;9.70;99.90
285;DHT22;127;48.770;9.212;2023-01-13T03:52:43;9.70;99.90
285;DHT22;127;48.770;9.212;2023-01-13T03:55:15;9.70;99.90
285;DHT22;127;48.770;9.212;2023-01-13T03:57:47;9.70;99.90
285;DHT22;127;48.770;9.212;2023-01-13T04:00:18;9.60;99.90
285;DHT22;127;48.770;9.212;2023-01-13T04:02:56;9.60;99.90
285;DHT22;127;48.770;9.212;2023-01-13T04:05:26;9.60;99.90
285;DHT22;127;48.770;9.212;2023-01-13T04:08:01;9.60;99.90
285;DHT22;127;48.770;9.212;2023-01-13T04:10:37;9.60;99.90
285;DHT22;127;48.770;9.212;2023-01-13T04:13:10;9.50;99.90
285;DHT22;127;48.770;9.212;2023-01-13T04:15:42;9.50;99.90
285;DHT22;127;48.770;9.212;2023-01-13T04:18:15;9.60;99.90
285;DHT22;127;48.770;9.212;2023-01-13T04:20:46;9.50;99.90
285;DHT22;127;48.770;9.212;2023-01-13T04:23:15;9.60;99.90
285;DHT22;127;48.770;9.212;2023-01-13T04:25:44;9.50;99.90
285;DHT22;127;48.770;9.212;2023-01-13T04:28:13;9.50;99.90
285;DHT22;127;48.770;9.212;2023-01-13T04:30:43;9.60;99.90
285;DHT22;127;48.770;9.212;2023-01-13T04:33:16;9.60;99.90
285;DHT22;127;48.770;9.212;2023-01-13T04:35:45;9.60;99.90
285;DHT22;127;48.770;9.212;2023-01-13T04:38:16;9.60;99.90
285;DHT22;127;48.770;9.212;2023-01-13T04:40:44;9.60;99.90
285;DHT22;127;48.770;9.212;2023-01-13T04:43:13;9.60;99.90
285;DHT22;127;48.770;9.212;2023-01-13T04:45:43;9.70;99.90
285;DHT22;127;48.770;9.212;2023-01-13T04:48:14;9.70;99.90
285;DHT22;127;48.770;9.212;2023-01-13T04:50:43;9.80;99.90
285;DHT22;127;48.770;9.212;2023-01-13T04:53:11;9.80;99.90
285;DHT22;127;48.770;9.212;2023-01-13T04:55:40;9.80;99.90
285;DHT22;127;48.770;9.212;2023-01-13T04:58:09;9.80;99.90
285;DHT22;127;48.770;9.212;2023-01-13T05:00:38;9.70;99.90
285;DHT22;127;48.770;9.212;2023-01-13T05:03:07;9.70;99.90
285;DHT22;127;48.770;9.212;2023-01-13T05:05:38;9.80;99.90
285;DHT22;127;48.770;9.212;2023-01-13T05:08:06;9.80;99.90
285;DHT22;127;48.770;9.212;2023-01-13T05:10:35;9.90;99.90
285;DHT22;127;48.770;9.212;2023-01-13T05:13:04;9.90;99.90
285;DHT22;127;48.770;9.212;2023-01-13T05:15:45;9.90;99.90
285;DHT22;127;48.770;9.212;2023-01-13T05:18:27;9.90;99.90
285;DHT22;127;48.770;9.212;2023-01-13T05:20:59;9.90;99.90
285;DHT22;127;48.770;9.212;2023-01-13T05:23:27;9.80;99.90
285;DHT22;127;48.770;9.212;2023-01-13T05:26:09;9.90;99.90
285;DHT22;127;48.770;9.212;2023-01-13T05:28:37;9.90;99.90
285;DHT22;127;48.770;9.212;2023-01-13T05:31:06;9.90;99.90
285;DHT22;127;48.770;9.212;2023-01-13T05:33:36;9.90;99.90
285;DHT22;127;48.770;9.212;2023-01-13T05:36:08;9.90;99.90
285;DHT22;127;48.770;9.212;2023-01-13T05:38:37;9.90;99.90
285;DHT22;127;48.770;9.212;2023-01-13T05:41:08;9.90;99.90
285;DHT22;127;48.770;9.212;2023-01-13T05:43:49;9.90;99.90
285;DHT22;127;48.770;9.212;2023-01-13T05:46:18;9.90;99.90
285;DHT22;127;48.770;9.212;2023-01-13T05:48:46;9.90;99.90
285;DHT22;127;48.770;9.212;2023-01-13T05:51:17;9.90;99.90
285;DHT22;127;48.770;9.212;2023-01-13T05:53:50;9.80;99.90
285;DHT22;127;48.770;9.212;2023-01-13T05:56:19;9.80;99.90
285;DHT22;127;48.770;9.212;2023-01-13T05:58:48;9.80;99.90
285;DHT22;127;48.770;9.212;2023-01-13T06:01:16;9.80;99.90
285;DHT22;127;48.770;9.212;2023-01-13T06:03:45;9.70;99.90
285;DHT22;127;48.770;9.212;2023-01-13T06:06:13;9.70;99.90
285;DHT22;127;48.770;9.212;2023-01-13T06:08:44;9.60;99.90
285;DHT22;127;48.770;9.212;2023-01-13T06:11:13;9.60;99.90
285;DHT22;127;48.770;9.212;2023-01-13T06:13:42;9.60;99.90
285;DHT22;127;48.770;9.212;2023-01-13T06:16:11;9.60;99.90
285;DHT22;127;48.770;9.212;2023-01-13T06:18:39;9.70;99.90
285;DHT22;127;48.770;9.212;2023-01-13T06:21:08;9.70;99.90
285;DHT22;127;48.770;9.212;2023-01-13T06:23:36;9.70;99.90
285;DHT22;127;48.770;9.212;2023-01-13T06:26:12;9.70;99.90
285;DHT22;127;48.770;9.212;2023-01-13T06:28:41;9.70;99.90
285;DHT22;127;48.770;9.212;2023-01-13T06:31:10;9.80;99.90
285;DHT22;127;48.770;9.212;2023-01-13T06:33:42;9.70;99.90
285;DHT22;127;48.770;9.212;2023-01-13T06:36:13;9.70;99.90
285;DHT22;127;48.770;9.212;2023-01-13T06:38:47;9.70;99.90
285;DHT22;127;48.770;9.212;2023-01-13T06:41:20;9.70;99.90
285;DHT22;127;48.770;9.212;2023-01-13T06:44:10;9.70;99.90
285;DHT22;127;48.770;9.212;2023-01-13T06:46:36;9.70;99.90
285;DHT22;127;48.770;9.212;2023-01-13T06:49:04;9.70;99.90
285;DHT22;127;48.770;9.212;2023-01-13T06:51:33;9.60;99.90
285;DHT22;127;48.770;9.212;2023-01-13T06:54:02;9.60;99.90
285;DHT22;127;48.770;9.212;2023-01-13T06:56:34;9.60;99.90
285;DHT22;127;48.770;9.212;2023-01-13T06:59:02;9.60;99.90
285;DHT22;127;48.770;9.212;2023-01-13T07:01:31;9.60;99.90
285;DHT22;127;48.770;9.212;2023-01-13T07:03:59;9.70;99.90
285;DHT22;127;48.770;9.212;2023-01-13T07:06:28;9.70;99.90
285;DHT22;127;48.770;9.212;2023-01-13T07:08:56;9.60;99.90
285;DHT22;127;48.770;9.212;2023-01-13T07:11:25;9.70;99.90
285;DHT22;127;48.770;9.212;2023-01-13T07:13:56;9.70;99.90
285;DHT22;127;48.770;9.212;2023-01-13T07:16:37;9.60;99.90
285;DHT22;127;48.770;9.212;2023-01-13T07:19:09;9.60;99.90
285;DHT22;127;48.770;9.212;2023-01-13T07:21:37;9.60;99.90
285;DHT22;127;48.770;9.212;2023-01-13T07:24:06;9.60;99.90
285;DHT22;127;48.770;9.212;2023-01-13T07:26:35;9.60;99.90
285;DHT22;127;48.770;9.212;2023-01-13T07:29:06;9.60;99.90
285;DHT22;127;48.770;9.212;2023-01-13T07:31:35;9.50;99.90
285;DHT22;127;48.770;9.212;2023-01-13T07:34:04;9.50;99.90
285;DHT22;127;48.770;9.212;2023-01-13T07:36:33;9.50;99.90
285;DHT22;127;48.770;9.212;2023-01-13T07:39:02;9.50;99.90
285;DHT22;127;48.770;9.212;2023-01-13T07:41:30;9.50;99.90
285;DHT22;127;48.770;9.212;2023-01-13T07:44:14;9.60;99.90
285;DHT22;127;48.770;9.212;2023-01-13T07:46:43;9.70;99.90
285;DHT22;127;48.770;9.212;2023-01-13T07:49:11;9.80;99.90
285;DHT22;127;48.770;9.212;2023-01-13T07:51:40;9.70;99.90
285;DHT22;127;48.770;9.212;2023-01-13T07:54:09;9.70;99.90
285;DHT22;127;48.770;9.212;2023-01-13T07:56:37;9.70;99.90
285;DHT22;127;48.770;9.212;2023-01-13T07:59:06;9.70;99.90
285;DHT22;127;48.770;9.212;2023-01-13T08:01:37;9.80;99.90
285;DHT22;127;48.770;9.212;2023-01-13T08:04:06;9.80;99.90
285;DHT22;127;48.770;9.212;2023-01-13T08:06:34;9.90;99.90
285;DHT22;127;48.770;9.212;2023-01-13T08:09:03;9.90;99.90
285;DHT22;127;48.770;9.212;2023-01-13T08:11:32;10.00;99.90
285;DHT22;127;48.770;9.212;2023-01-13T08:14:00;10.00;99.90
285;DHT22;127;48.770;9.212;2023-01-13T08:16:32;10.10;99.90
285;DHT22;127;48.770;9.212;2023-01-13T08:19:03;10.10;99.90
285;DHT22;127;48.770;9.212;2023-01-13T08:21:32;10.10;99.90
285;DHT22;127;48.770;9.212;2023-01-13T08:24:01;10.00;99.90
285;DHT22;127;48.770;9.212;2023-01-13T08:26:29;10.00;99.90
285;DHT22;127;48.770;9.212;2023-01-13T08:28:58;10.00;99.90
285;DHT22;127;48.770;9.212;2023-01-13T08:31:27;10.10;99.90
285;DHT22;127;48.770;9.212;2023-01-13T08:33:55;10.20;99.90
285;DHT22;127;48.770;9.212;2023-01-13T08:36:26;10.20;99.90
285;DHT22;127;48.770;9.212;2023-01-13T08:38:55;10.10;99.90
285;DHT22;127;48.770;9.212;2023-01-13T08:41:24;9.80;99.90
285;DHT22;127;48.770;9.212;2023-01-13T08:44:05;9.60;99.90
285;DHT22;127;48.770;9.212;2023-01-13T08:46:34;9.30;99.90
285;DHT22;127;48.770;9.212;2023-01-13T08:49:03;9.00;99.90
285;DHT22;127;48.770;9.212;2023-01-13T08:51:34;8.90;99.90
285;DHT22;127;48.770;9.212;2023-01-13T08:54:03;8.80;99.90
285;DHT22;127;48.770;9.212;2023-01-13T08:56:32;8.80;99.90
285;DHT22;127;48.770;9.212;2023-01-13T08:59:01;8.80;99.90
285;DHT22;127;48.770;9.212;2023-01-13T09:01:29;8.90;99.90
285;DHT22;127;48.770;9.212;2023-01-13T09:03:58;8.90;99.90
285;DHT22;127;48.770;9.212;2023-01-13T09:06:27;8.90;99.90
285;DHT22;127;48.770;9.212;2023-01-13T09:08:58;8.90;99.90
285;DHT22;127;48.770;9.212;2023-01-13T09:11:30;8.80;99.90
285;DHT22;127;48.770;9.212;2023-01-13T09:14:11;8.80;99.90
285;DHT22;127;48.770;9.212;2023-01-13T09:16:40;8.80;99.90
285;DHT22;127;48.770;9.212;2023-01-13T09:19:08;8.80;1.00
285;DHT22;127;48.770;9.212;2023-01-13T09:21:37;8.60;99.90
285;DHT22;127;48.770;9.212;2023-01-13T09:24:08;8.50;99.90
285;DHT22;127;48.770;9.212;2023-01-13T09:26:37;8.30;99.90
285;DHT22;127;48.770;9.212;2023-01-13T09:29:06;8.10;99.90
285;DHT22;127;48.770;9.212;2023-01-13T09:31:34;8.00;99.90
285;DHT22;127;48.770;9.212;2023-01-13T09:34:04;7.90;99.90
285;DHT22;127;48.770;9.212;2023-01-13T09:36:46;7.90;99.90
285;DHT22;127;48.770;9.212;2023-01-13T09:39:17;7.90;99.90
285;DHT22;127;48.770;9.212;2023-01-13T09:41:49;8.00;99.90
285;DHT22;127;48.770;9.212;2023-01-13T09:44:40;7.90;99.90
285;DHT22;127;48.770;9.212;2023-01-13T09:47:18;8.00;99.90
285;DHT22;127;48.770;9.212;2023-01-13T09:49:50;8.10;99.90
285;DHT22;127;48.770;9.212;2023-01-13T09:52:21;8.30;99.90
285;DHT22;127;48.770;9.212;2023-01-13T09:54:59;8.30;99.90
285;DHT22;127;48.770;9.212;2023-01-13T09:57:31;8.20;99.90
285;DHT22;127;48.770;9.212;2023-01-13T10:00:03;8.20;99.90
285;DHT22;127;48.770;9.212;2023-01-13T10:02:50;8.20;99.90
285;DHT22;127;48.770;9.212;2023-01-13T10:05:33;8.20;99.90
285;DHT22;127;48.770;9.212;2023-01-13T10:08:06;8.20;99.90
285;DHT22;127;48.770;9.212;2023-01-13T10:10:43;8.20;99.90
285;DHT22;127;48.770;9.212;2023-01-13T10:13:15;8.10;99.90
285;DHT22;127;48.770;9.212;2023-01-13T10:15:51;8.10;99.90
285;DHT22;127;48.770;9.212;2023-01-13T10:18:27;8.10;99.90
285;DHT22;127;48.770;9.212;2023-01-13T10:21:15;8.10;99.90
285;DHT22;127;48.770;9.212;2023-01-13T10:23:55;8.00;99.90
285;DHT22;127;48.770;9.212;2023-01-13T10:26:43;8.00;99.90
285;DHT22;127;48.770;9.212;2023-01-13T10:29:23;8.00;99.90
285;DHT22;127;48.770;9.212;2023-01-13T10:31:53;8.00;99.90
285;DHT22;127;48.770;9.212;2023-01-13T10:34:22;8.00;99.90
285;DHT22;127;48.770;9.212;2023-01-13T10:36:56;8.10;99.90
285;DHT22;127;48.770;9.212;2023-01-13T10:39:28;8.20;99.90
285;DHT22;127;48.770;9.212;2023-01-13T10:42:12;8.20;99.90
285;DHT22;127;48.770;9.212;2023-01-13T10:44:49;8.80;99.90
285;DHT22;127;48.770;9.212;2023-01-13T10:47:24;8.90;99.90
285;DHT22;127;48.770;9.212;2023-01-13T10:50:03;8.90;99.90
285;DHT22;127;48.770;9.212;2023-01-13T10:52:56;8.90;99.90
285;DHT22;127;48.770;9.212;2023-01-13T10:55:27;8.80;99.90
285;DHT22;127;48.770;9.212;2023-01-13T10:58:11;8.60;99.90
285;DHT22;127;48.770;9.212;2023-01-13T11:00:40;8.50;99.90
285;DHT22;127;48.770;9.212;2023-01-13T11:03:14;8.50;99.90
285;DHT22;127;48.770;9.212;2023-01-13T11:05:53;8.40;99.90
285;DHT22;127;48.770;9.212;2023-01-13T11:08:24;8.30;99.90
285;DHT22;127;48.770;9.212;2023-01-13T11:10:55;8.10;99.90
285;DHT22;127;48.770;9.212;2023-01-13T11:13:32;7.80;99.90
285;DHT22;127;48.770;9.212;2023-01-13T11:16:06;7.60;99.90
285;DHT22;127;48.770;9.212;2023-01-13T11:18:40;7.50;99.90
285;DHT22;127;48.770;9.212;2023-01-13T11:21:32;7.40;99.90
285;DHT22;127;48.770;9.212;2023-01-13T11:24:05;7.40;99.90
285;DHT22;127;48.770;9.212;2023-01-13T11:26:42;7.40;99.90
285;DHT22;127;48.770;9.212;2023-01-13T11:29:19;7.40;99.90
285;DHT22;127;48.770;9.212;2023-01-13T11:31:54;7.30;99.90
285;DHT22;127;48.770;9.212;2023-01-13T11:34:29;7.30;99.90
285;DHT22;127;48.770;9.212;2023-01-13T11:37:01;7.30;99.90
285;DHT22;127;48.770;9.212;2023-01-13T11:39:43;7.20;99.90
285;DHT22;127;48.770;9.212;2023-01-13T11:42:19;7.20;99.90
285;DHT22;127;48.770;9.212;2023-01-13T11:45:00;7.10;99.90
285;DHT22;127;48.770;9.212;2023-01-13T11:47:31;7.00;99.90
285;DHT22;127;48.770;9.212;2023-01-13T11:50:01;7.00;99.90
285;DHT22;127;48.770;9.212;2023-01-13T11:52:52;7.00;99.90
285;DHT22;127;48.770;9.212;2023-01-13T11:55:32;7.10;99.90
285;DHT22;127;48.770;9.212;2023-01-13T11:58:25;7.10;99.90
285;DHT22;127;48.770;9.212;2023-01-13T12:01:31;7.20;99.90
285;DHT22;127;48.770;9.212;2023-01-13T12:04:16;7.30;99.90
285;DHT22;127;48.770;9.212;2023-01-13T12:06:51;7.60;99.90
285;DHT22;127;48.770;9.212;2023-01-13T12:09:40;8.40;99.90
285;DHT22;127;48.770;9.212;2023-01-13T12:12:17;8.80;99.90
285;DHT22;127;48.770;9.212;2023-01-13T12:15:02;9.60;99.90
285;DHT22;127;48.770;9.212;2023-01-13T12:17:46;9.50;99.90
285;DHT22;127;48.770;9.212;2023-01-13T12:20:27;9.20;99.90
285;DHT22;127;48.770;9.212;2023-01-13T12:23:01;8.80;99.90
285;DHT22;127;48.770;9.212;2023-01-13T12:25:35;8.80;99.90
285;DHT22;127;48.770;9.212;2023-01-13T12:28:10;9.00;99.90
285;DHT22;127;48.770;9.212;2023-01-13T12:30:44;9.50;99.90
285;DHT22;127;48.770;9.212;2023-01-13T12:33:24;10.20;99.90
285;DHT22;127;48.770;9.212;2023-01-13T12:36:00;11.80;99.90
285;DHT22;127;48.770;9.212;2023-01-13T12:38:35;13.10;99.90
285;DHT22;127;48.770;9.212;2023-01-13T12:41:14;13.20;99.90
285;DHT22;127;48.770;9.212;2023-01-13T12:43:46;13.10;99.90
285;DHT22;127;48.770;9.212;2023-01-13T12:46:55;12.40;99.90
285;DHT22;127;48.770;9.212;2023-01-13T12:49:29;11.70;99.90
285;DHT22;127;48.770;9.212;2023-01-13T12:52:14;11.00;99.90
285;DHT22;127;48.770;9.212;2023-01-13T12:55:16;10.80;99.90
285;DHT22;127;48.770;9.212;2023-01-13T12:58:12;11.40;99.90
285;DHT22;127;48.770;9.212;2023-01-13T13:00:57;12.50;99.90
285;DHT22;127;48.770;9.212;2023-01-13T13:03:32;13.10;99.90
285;DHT22;127;48.770;9.212;2023-01-13T13:06:05;13.50;99.90
285;DHT22;127;48.770;9.212;2023-01-13T13:08:44;13.90;99.90
285;DHT22;127;48.770;9.212;2023-01-13T13:14:58;14.60;99.90
285;DHT22;127;48.770;9.212;2023-01-13T13:17:41;14.60;99.90
285;DHT22;127;48.770;9.212;2023-01-13T13:23:33;15.90;99.90
285;DHT22;127;48.770;9.212;2023-01-13T13:26:14;15.40;99.90
285;DHT22;127;48.770;9.212;2023-01-13T13:28:52;15.80;99.90
285;DHT22;127;48.770;9.212;2023-01-13T13:31:35;15.10;99.90
285;DHT22;127;48.770;9.212;2023-01-13T13:34:20;14.70;99.90
285;DHT22;127;48.770;9.212;2023-01-13T13:37:16;14.10;99.90
285;DHT22;127;48.770;9.212;2023-01-13T13:39:52;14.10;99.90
285;DHT22;127;48.770;9.212;2023-01-13T13:42:37;13.50;99.90
285;DHT22;127;48.770;9.212;2023-01-13T13:45:22;13.50;99.90
285;DHT22;127;48.770;9.212;2023-01-13T13:48:20;13.90;99.90
285;DHT22;127;48.770;9.212;2023-01-13T13:50:49;13.80;99.90
285;DHT22;127;48.770;9.212;2023-01-13T13:53:21;12.90;99.90
285;DHT22;127;48.770;9.212;2023-01-13T13:55:55;11.70;99.90
285;DHT22;127;48.770;9.212;2023-01-13T13:58:26;11.30;99.90
285;DHT22;127;48.770;9.212;2023-01-13T14:00:56;10.90;99.90
285;DHT22;127;48.770;9.212;2023-01-13T14:03:28;10.30;99.90
285;DHT22;127;48.770;9.212;2023-01-13T14:05:58;10.10;99.90
285;DHT22;127;48.770;9.212;2023-01-13T14:08:28;9.80;99.90
285;DHT22;127;48.770;9.212;2023-01-13T14:11:00;9.60;99.90
285;DHT22;127;48.770;9.212;2023-01-13T14:13:30;9.40;99.90
285;DHT22;127;48.770;9.212;2023-01-13T14:16:00;8.80;99.90
285;DHT22;127;48.770;9.212;2023-01-13T14:18:31;8.20;99.90
285;DHT22;127;48.770;9.212;2023-01-13T14:21:03;7.70;99.90
285;DHT22;127;48.770;9.212;2023-01-13T14:23:32;7.30;99.90
285;DHT22;127;48.770;9.212;2023-01-13T14:26:07;7.10;99.90
285;DHT22;127;48.770;9.212;2023-01-13T14:28:38;7.00;99.90
285;DHT22;127;48.770;9.212;2023-01-13T14:31:08;6.80;99.90
285;DHT22;127;48.770;9.212;2023-01-13T14:33:40;6.70;99.90
285;DHT22;127;48.770;9.212;2023-01-13T14:36:16;6.70;99.90
285;DHT22;127;48.770;9.212;2023-01-13T14:38:47;6.50;99.90
285;DHT22;127;48.770;9.212;2023-01-13T14:41:27;6.50;99.90
285;DHT22;127;48.770;9.212;2023-01-13T14:43:58;6.40;99.90
285;DHT22;127;48.770;9.212;2023-01-13T14:46:36;6.30;99.90
285;DHT22;127;48.770;9.212;2023-01-13T14:49:18;6.30;99.90
285;DHT22;127;48.770;9.212;2023-01-13T14:51:50;6.70;99.90
285;DHT22;127;48.770;9.212;2023-01-13T14:54:47;7.10;99.90
285;DHT22;127;48.770;9.212;2023-01-13T14:57:25;6.90;99.90
285;DHT22;127;48.770;9.212;2023-01-13T15:00:01;6.60;99.90
285;DHT22;127;48.770;9.212;2023-01-13T15:02:46;6.40;99.90
285;DHT22;127;48.770;9.212;2023-01-13T15:05:40;6.30;99.90
285;DHT22;127;48.770;9.212;2023-01-13T15:08:37;6.20;99.90
285;DHT22;127;48.770;9.212;2023-01-13T15:11:13;6.10;99.90
285;DHT22;127;48.770;9.212;2023-01-13T15:13:50;6.20;99.90
285;DHT22;127;48.770;9.212;2023-01-13T15:16:23;6.20;99.90
285;DHT22;127;48.770;9.212;2023-01-13T15:18:53;6.20;99.90
285;DHT22;127;48.770;9.212;2023-01-13T15:21:23;6.20;99.90
285;DHT22;127;48.770;9.212;2023-01-13T15:23:51;6.20;99.90
285;DHT22;127;48.770;9.212;2023-01-13T15:26:25;6.20;99.90
285;DHT22;127;48.770;9.212;2023-01-13T15:28:57;6.20;99.90
285;DHT22;127;48.770;9.212;2023-01-13T15:31:27;6.20;99.90
285;DHT22;127;48.770;9.212;2023-01-13T15:33:55;6.20;99.90
285;DHT22;127;48.770;9.212;2023-01-13T15:36:26;6.10;99.90
285;DHT22;127;48.770;9.212;2023-01-13T15:38:57;6.00;99.90
285;DHT22;127;48.770;9.212;2023-01-13T15:41:26;5.90;99.90
285;DHT22;127;48.770;9.212;2023-01-13T15:44:11;5.90;99.90
285;DHT22;127;48.770;9.212;2023-01-13T15:46:53;5.80;99.90
285;DHT22;127;48.770;9.212;2023-01-13T15:49:25;5.80;99.90
285;DHT22;127;48.770;9.212;2023-01-13T15:51:59;5.90;99.90
285;DHT22;127;48.770;9.212;2023-01-13T15:54:28;5.90;99.90
285;DHT22;127;48.770;9.212;2023-01-13T15:56:57;5.80;99.90
285;DHT22;127;48.770;9.212;2023-01-13T15:59:28;5.80;99.90
285;DHT22;127;48.770;9.212;2023-01-13T16:01:58;5.80;99.90
285;DHT22;127;48.770;9.212;2023-01-13T16:04:27;5.80;99.90
285;DHT22;127;48.770;9.212;2023-01-13T16:06:55;5.80;99.90
285;DHT22;127;48.770;9.212;2023-01-13T16:09:24;5.70;99.90
285;DHT22;127;48.770;9.212;2023-01-13T16:11:52;5.70;99.90
285;DHT22;127;48.770;9.212;2023-01-13T16:14:21;5.70;99.90
285;DHT22;127;48.770;9.212;2023-01-13T16:16:52;5.70;99.90
285;DHT22;127;48.770;9.212;2023-01-13T16:19:21;5.70;99.90
285;DHT22;127;48.770;9.212;2023-01-13T16:21:49;5.70;99.90
285;DHT22;127;48.770;9.212;2023-01-13T16:24:18;5.80;99.90
285;DHT22;127;48.770;9.212;2023-01-13T16:26:47;5.80;99.90
285;DHT22;127;48.770;9.212;2023-01-13T16:29:15;5.90;99.90
285;DHT22;127;48.770;9.212;2023-01-13T16:31:44;5.80;99.90
285;DHT22;127;48.770;9.212;2023-01-13T16:34:15;5.80;99.90
285;DHT22;127;48.770;9.212;2023-01-13T16:36:43;5.80;99.90
285;DHT22;127;48.770;9.212;2023-01-13T16:39:19;5.80;99.90
285;DHT22;127;48.770;9.212;2023-01-13T16:41:48;5.80;99.90
285;DHT22;127;48.770;9.212;2023-01-13T16:44:17;5.70;99.90
285;DHT22;127;48.770;9.212;2023-01-13T16:46:45;5.80;99.90
285;DHT22;127;48.770;9.212;2023-01-13T16:49:16;5.80;99.90
285;DHT22;127;48.770;9.212;2023-01-13T16:51:45;5.80;99.90
285;DHT22;127;48.770;9.212;2023-01-13T16:54:14;5.80;99.90
285;DHT22;127;48.770;9.212;2023-01-13T16:56:42;5.80;99.90
285;DHT22;127;48.770;9.212;2023-01-13T16:59:12;5.70;99.90
285;DHT22;127;48.770;9.212;2023-01-13T17:01:42;5.80;99.90
285;DHT22;127;48.770;9.212;2023-01-13T17:04:17;5.80;99.90
285;DHT22;127;48.770;9.212;2023-01-13T17:06:51;5.90;99.90
285;DHT22;127;48.770;9.212;2023-01-13T17:09:22;5.80;99.90
285;DHT22;127;48.770;9.212;2023-01-13T17:11:51;5.90;99.90
285;DHT22;127;48.770;9.212;2023-01-13T17:14:20;5.90;99.90
285;DHT22;127;48.770;9.212;2023-01-13T17:16:51;6.00;99.90
285;DHT22;127;48.770;9.212;2023-01-13T17:19:22;6.10;99.90
285;DHT22;127;48.770;9.212;2023-01-13T17:21:51;6.20;99.90
285;DHT22;127;48.770;9.212;2023-01-13T17:24:20;6.30;99.90
285;DHT22;127;48.770;9.212;2023-01-13T17:26:50;6.50;99.90
285;DHT22;127;48.770;9.212;2023-01-13T17:29:20;6.50;99.90
285;DHT22;127;48.770;9.212;2023-01-13T17:31:51;6.60;99.90
285;DHT22;127;48.770;9.212;2023-01-13T17:34:23;6.60;99.90
285;DHT22;127;48.770;9.212;2023-01-13T17:36:51;6.60;99.90
285;DHT22;127;48.770;9.212;2023-01-13T17:39:21;6.60;99.90
285;DHT22;127;48.770;9.212;2023-01-13T17:41:51;6.60;99.90
285;DHT22;127;48.770;9.212;2023-01-13T17:44:21;6.60;99.90
285;DHT22;127;48.770;9.212;2023-01-13T17:46:49;6.70;99.90